Los Gatos, CA

4:07 AM PDT on August 29, 2015 (GMT -0700)
Loma Prieta, Radonich Rd | | Change Station
CLOSE
Current Station
Personal Weather Station
Location: Los Gatos, CA
Elevation: 2020 ft
Nearby Weather Stations

Elev 2020 ft 37.10 °N, 121.90 °W | Updated 0 second ago

Partly Cloudy
Partly Cloudy
63.7 °F
Feels Like 63.7 °F
N
1.0
Wind Variable Wind from NW
Gusts 1.0 mph

Today
High -- | Low -- °F
--% Chance of Precip.
Yesterday
High -- | Low -- °F
Precip. -- in
6:35 AM 7:40 PM
Full, 100% visible
Pressure 29.96 in
Visibility 2.5 miles
Clouds Overcast 300 ft
Dew Point 54 °F
Humidity 72%
Rainfall 0.00 in
Snow Depth Not available.
UV 0 out of 12
Pollen 6.70 out of 12
Air Quality Not available.
Flu Activity Not available.
METAR KWVI 291053Z AUTO 12003KT 2 1/2SM BR OVC003 17/16 A2996 RMK AO2 VIS 1 1/2V3 SLP145 T01720156
Pressure 29.96 in
Visibility 2.5 miles
Clouds Overcast 300 ft
Dew Point 54 °F
Humidity 72%
Rainfall 0.00 in
Snow Depth Not available.
UV 0 out of 12
Pollen 6.70 out of 12
Air Quality Not available.
Flu Activity Not available.
METAR KWVI 291053Z AUTO 12003KT 2 1/2SM BR OVC003 17/16 A2996 RMK AO2 VIS 1 1/2V3 SLP145 T01720156

10-Day Weather Forecast

×

Almanac

Astronomy

Aug. 29, 2015 Rise Set
Actual Time
Civil Twilight
Nautical Twilight
Astronomical Twilight
Moon
Length of Visible Light
Length of Day
Tomorrow will be .
, % of the Moon is Illuminated

Today's Extremes

State Highs State Lows

Community

WunderPhotos

Upload Photos

1,850,651 photos uploaded!

WunderBlogs® & News

Nearby

Air Quality

  Air Quality AQ Index Pollutant
Not available.

Snow Depth

Station Depth Elevation

Earthquake Activity

City Distance Mag. Time & Date
Minimum magnitude displayed is 2.5.

Coastal Water Temperatures

Place Temperature

Stations

Nearby Weather Stations

Station Location Temp. Windchill Dew Point Humidity Wind Precip. Elev Updated Type